Time;durP1;ratioP1;P1;durP2;ratioP2;P2;SDS_P1;SDS_P2;PMS_P1;PMS_P2;Temp;Humidity;BMP_temperature;BMP_pressure;BME280_temperature;BME280_humidity;BME280_pressure;Samples;Min_cycle;Max_cycle;Signal;HPM_P1;HPM_P2
2021/12/03 00:01:59;;;;;;;23.15;11.50;;;;;;;-0.88;96.00;101055.25;5037450;28;20423;-68
2021/12/03 00:04:24;;;;;;;18.77;11.18;;;;;;;-0.88;96.11;101050.03;5031270;28;20029;-68
2021/12/03 00:06:49;;;;;;;19.92;10.13;;;;;;;-0.87;96.39;101049.16;5031045;28;20045;-69
2021/12/03 00:09:15;;;;;;;18.23;11.05;;;;;;;-0.87;96.16;101054.38;5031617;28;20034;-69
2021/12/03 00:11:40;;;;;;;18.48;11.48;;;;;;;-0.86;96.21;101058.69;5031025;28;20026;-68
2021/12/03 00:14:05;;;;;;;22.38;12.02;;;;;;;-0.88;96.63;101052.63;5030707;28;20029;-68
2021/12/03 00:16:31;;;;;;;20.08;11.80;;;;;;;-0.87;96.39;101055.22;5031094;28;20021;-68
2021/12/03 00:18:56;;;;;;;16.77;11.52;;;;;;;-0.86;96.51;101056.09;5030845;28;20032;-69
2021/12/03 00:21:24;;;;;;;20.15;12.88;;;;;;;-0.87;96.57;101057.81;5030900;28;20038;-69
2021/12/03 00:23:49;;;;;;;19.02;12.68;;;;;;;-0.87;96.66;101055.22;5030848;28;20041;-69
2021/12/03 00:26:15;;;;;;;22.83;13.00;;;;;;;-0.87;96.74;101064.78;5030857;28;20029;-69
2021/12/03 00:28:40;;;;;;;20.42;12.20;;;;;;;-0.87;96.28;101064.78;5030591;28;20032;-68
2021/12/03 00:31:06;;;;;;;21.70;12.52;;;;;;;-0.87;96.26;101060.44;5042665;28;20025;-68
2021/12/03 00:33:32;;;;;;;19.88;13.35;;;;;;;-0.87;96.55;101056.97;5048539;28;20025;-69
2021/12/03 00:36:04;;;;;;;22.30;13.07;;;;;;;-0.88;96.36;101060.47;5045014;28;20031;-69
2021/12/03 00:38:35;;;;;;;29.70;15.35;;;;;;;-0.87;96.71;101063.03;5056775;28;20029;-69
2021/12/03 00:41:01;;;;;;;33.97;17.88;;;;;;;-0.88;96.89;101066.56;5043696;28;20093;-68
2021/12/03 00:43:26;;;;;;;24.85;15.63;;;;;;;-0.89;96.76;101062.22;5064205;28;20033;-68
2021/12/03 00:45:54;;;;;;;21.80;13.57;;;;;;;-0.88;96.58;101065.69;5054729;28;20074;-68
2021/12/03 00:48:19;;;;;;;27.40;14.85;;;;;;;-0.89;96.35;101061.38;5070446;28;20032;-68
2021/12/03 00:50:44;;;;;;;22.75;14.98;;;;;;;-0.89;96.67;101067.44;5041893;28;20037;-68
2021/12/03 00:53:09;;;;;;;21.48;15.25;;;;;;;-0.90;96.82;101063.13;5047408;28;20025;-69
2021/12/03 00:55:35;;;;;;;27.35;16.27;;;;;;;-0.90;96.82;101070.94;5057718;28;20071;-69
2021/12/03 00:58:01;;;;;;;23.67;15.93;;;;;;;-0.89;96.47;101072.66;5068633;28;20024;-69
2021/12/03 01:00:30;;;;;;;26.05;17.15;;;;;;;-0.90;96.79;101070.09;5058372;28;20478;-67
2021/12/03 01:02:58;;;;;;;24.20;16.35;;;;;;;-0.93;97.22;101069.28;5068487;28;20027;-71
2021/12/03 01:05:24;;;;;;;30.35;17.98;;;;;;;-0.93;96.95;101069.28;5036553;28;20035;-68
2021/12/03 01:07:49;;;;;;;24.77;17.58;;;;;;;-0.90;97.07;101077.91;5062422;28;20406;-68
2021/12/03 01:10:16;;;;;;;32.17;19.65;;;;;;;-0.91;96.89;101071.00;5065884;28;20100;-68
2021/12/03 01:12:41;;;;;;;36.25;21.48;;;;;;;-0.96;97.23;101065.91;5044945;28;20036;-68
2021/12/03 01:15:10;;;;;;;33.83;20.75;;;;;;;-0.91;97.01;101081.44;5046411;28;20387;-68
2021/12/03 01:17:36;;;;;;;34.50;23.55;;;;;;;-0.91;97.39;101079.66;5050134;28;20104;-69
2021/12/03 01:20:06;;;;;;;32.63;22.58;;;;;;;-0.91;97.35;101078.81;5046626;28;20423;-69
2021/12/03 01:22:31;;;;;;;33.33;21.88;;;;;;;-0.91;97.53;101078.81;5029936;28;20574;-68
2021/12/03 01:24:57;;;;;;;35.25;21.80;;;;;;;-0.92;97.92;101083.16;5029743;28;20060;-69
2021/12/03 01:27:22;;;;;;;31.67;20.95;;;;;;;-0.93;97.41;101084.91;5032207;28;20117;-68
2021/12/03 01:29:47;;;;;;;30.58;20.25;;;;;;;-0.92;97.55;101085.78;5035016;28;20029;-68
2021/12/03 01:32:12;;;;;;;36.30;20.73;;;;;;;-0.91;97.64;101082.28;5059649;28;20028;-68
2021/12/03 01:34:38;;;;;;;36.55;20.38;;;;;;;-0.90;97.84;101089.19;5071713;28;20032;-68
2021/12/03 01:37:03;;;;;;;29.73;19.98;;;;;;;-0.91;97.76;101090.09;5071602;28;20036;-68
2021/12/03 01:39:28;;;;;;;27.73;18.42;;;;;;;-0.89;97.94;101092.66;5062880;28;20582;-68
2021/12/03 01:41:54;;;;;;;27.90;19.55;;;;;;;-0.88;97.95;101089.16;5051882;28;20025;-67
2021/12/03 01:44:19;;;;;;;30.65;18.70;;;;;;;-0.89;98.08;101085.69;5057715;28;20029;-67
2021/12/03 01:46:44;;;;;;;29.73;19.73;;;;;;;-0.87;97.81;101080.44;5059635;28;20031;-68
2021/12/03 01:49:12;;;;;;;31.20;19.65;;;;;;;-0.86;97.98;101079.56;5068322;28;20661;-68
2021/12/03 01:51:37;;;;;;;34.75;21.05;;;;;;;-0.86;98.21;101071.75;5064526;28;20020;-68
2021/12/03 01:54:03;;;;;;;44.22;24.73;;;;;;;-0.85;98.01;101073.44;5054754;28;20023;-68
2021/12/03 01:56:28;;;;;;;42.20;26.13;;;;;;;-0.85;98.13;101063.88;5073529;28;20479;-68
2021/12/03 01:58:54;;;;;;;51.58;28.38;;;;;;;-0.82;98.39;101078.56;5039904;28;20037;-68
2021/12/03 02:01:23;;;;;;;53.45;29.02;;;;;;;-0.82;98.52;101070.75;5033366;28;20028;-68
2021/12/03 02:03:52;;;;;;;60.88;30.65;;;;;;;-0.80;98.54;101071.56;5033343;28;20067;-68
2021/12/03 02:06:18;;;;;;;63.50;32.67;;;;;;;-0.78;98.64;101075.84;5033130;28;20052;-68
2021/12/03 02:08:43;;;;;;;67.50;33.78;;;;;;;-0.75;98.78;101080.13;5033612;28;20376;-68
2021/12/03 02:11:11;;;;;;;79.13;35.75;;;;;;;-0.72;99.17;101079.19;5038769;28;20033;-68
2021/12/03 02:13:36;;;;;;;75.13;36.17;;;;;;;-0.69;99.24;101081.72;5052896;28;20110;-68
2021/12/03 02:16:03;;;;;;;83.07;38.65;;;;;;;-0.67;99.63;101083.38;5056356;28;20056;-68
2021/12/03 02:18:28;;;;;;;91.18;39.28;;;;;;;-0.65;99.67;101089.44;5066253;28;20028;-69
2021/12/03 02:20:57;;;;;;;91.75;39.22;;;;;;;-0.62;99.67;101091.09;5060043;28;20429;-68
2021/12/03 02:23:23;;;;;;;97.10;39.75;;;;;;;-0.60;99.89;101097.13;5072784;28;20043;-68
2021/12/03 02:25:50;;;;;;;83.13;38.72;;;;;;;-0.58;99.96;101090.97;5071319;28;20389;-69
2021/12/03 02:28:17;;;;;;;98.72;41.95;;;;;;;-0.56;100.00;101083.13;5057868;28;20041;-68
2021/12/03 02:30:43;;;;;;;90.32;40.70;;;;;;;-0.52;99.99;101071.69;5059380;28;20060;-67
2021/12/03 02:33:09;;;;;;;90.93;40.22;;;;;;;-0.49;100.00;101073.38;5072913;28;20111;-68
2021/12/03 02:35:35;;;;;;;89.95;40.25;;;;;;;-0.47;100.00;101071.56;5069556;28;20107;-69
2021/12/03 02:38:01;;;;;;;84.20;39.25;;;;;;;-0.44;100.00;101066.28;5072501;28;20032;-68
2021/12/03 02:40:26;;;;;;;79.80;36.95;;;;;;;-0.42;100.00;101070.56;5063963;28;20052;-68
2021/12/03 02:42:53;;;;;;;75.13;38.33;;;;;;;-0.41;100.00;101067.03;5066256;28;20501;-68
2021/12/03 02:45:19;;;;;;;81.10;38.60;;;;;;;-0.36;100.00;101063.47;5065339;28;20024;-68
2021/12/03 02:47:45;;;;;;;75.07;36.50;;;;;;;-0.36;100.00;101066.91;5063737;28;20477;-68
2021/12/03 02:50:12;;;;;;;74.57;37.00;;;;;;;-0.33;100.00;101063.34;5044356;28;20108;-69
2021/12/03 02:52:39;;;;;;;69.45;35.75;;;;;;;-0.31;100.00;101059.81;5052299;28;20518;-69
2021/12/03 02:55:05;;;;;;;59.25;34.10;;;;;;;-0.29;100.00;101057.16;5052380;28;20021;-69
2021/12/03 02:57:31;;;;;;;72.15;34.75;;;;;;;-0.27;100.00;101058.81;5052289;28;20025;-69
2021/12/03 02:59:56;;;;;;;60.20;32.40;;;;;;;-0.25;100.00;101075.31;5050208;28;20036;-69
2021/12/03 03:02:22;;;;;;;59.63;33.72;;;;;;;-0.24;100.00;101063.13;5051907;28;20044;-69
2021/12/03 03:04:47;;;;;;;66.72;34.30;;;;;;;-0.23;100.00;101059.63;5050963;28;20033;-68
2021/12/03 03:07:12;;;;;;;57.72;33.38;;;;;;;-0.21;100.00;101049.97;5051728;28;20135;-68
2021/12/03 03:09:38;;;;;;;63.33;33.28;;;;;;;-0.21;100.00;101056.03;5048858;28;20036;-68
2021/12/03 03:12:03;;;;;;;59.08;32.50;;;;;;;-0.21;100.00;101052.59;5051987;28;20495;-68
2021/12/03 03:14:29;;;;;;;70.13;33.72;;;;;;;-0.20;99.94;101049.06;5050533;28;20048;-68
2021/12/03 03:16:55;;;;;;;63.47;34.25;;;;;;;-0.18;100.00;101047.28;5052178;28;20352;-69
2021/12/03 03:19:23;;;;;;;66.15;35.53;;;;;;;-0.18;100.00;101042.06;5050753;28;20108;-69
2021/12/03 03:21:48;;;;;;;71.78;35.55;;;;;;;-0.19;99.90;101035.97;5056637;28;20028;-68
2021/12/03 03:24:16;;;;;;;68.30;37.58;;;;;;;-0.17;100.00;101048.13;5067349;28;20074;-69
2021/12/03 03:26:45;;;;;;;75.15;37.35;;;;;;;-0.15;100.00;101046.31;5055740;28;20032;-69
2021/12/03 03:29:13;;;;;;;77.82;38.85;;;;;;;-0.16;100.00;101050.69;5057571;28;20046;-69
2021/12/03 03:31:39;;;;;;;67.43;36.88;;;;;;;-0.13;100.00;101047.13;5066640;28;20074;-69
2021/12/03 03:34:06;;;;;;;67.53;35.17;;;;;;;-0.13;99.98;101044.53;5048353;28;20067;-69
2021/12/03 03:36:33;;;;;;;72.60;35.47;;;;;;;-0.13;100.00;101047.13;5071448;28;20028;-70
2021/12/03 03:38:59;;;;;;;65.25;34.63;;;;;;;-0.12;99.84;101047.09;5061290;28;20048;-69
2021/12/03 03:41:24;;;;;;;73.00;33.75;;;;;;;-0.11;99.80;101050.56;5071168;28;20446;-69
2021/12/03 03:43:49;;;;;;;72.95;34.35;;;;;;;-0.11;100.00;101050.56;5071323;28;20032;-70
2021/12/03 03:46:15;;;;;;;70.35;33.50;;;;;;;-0.09;99.77;101040.94;5058522;28;20463;-69
2021/12/03 03:48:40;;;;;;;75.07;37.05;;;;;;;-0.09;100.00;101039.16;5031290;28;20025;-69
2021/12/03 03:51:06;;;;;;;90.43;38.22;;;;;;;-0.07;99.86;101039.13;5030990;28;20044;-69
2021/12/03 03:53:31;;;;;;;92.32;38.25;;;;;;;-0.07;100.00;101031.28;5031323;28;20036;-69
2021/12/03 03:55:56;;;;;;;81.50;39.28;;;;;;;-0.06;100.00;101030.41;5031627;28;20053;-69
2021/12/03 03:58:22;;;;;;;91.50;39.03;;;;;;;-0.02;99.83;101042.44;5031048;28;20253;-70
2021/12/03 04:00:47;;;;;;;95.35;40.30;;;;;;;-0.02;100.00;101027.66;5031307;28;20450;-70
2021/12/03 04:03:13;;;;;;;88.40;37.47;;;;;;;0.00;100.00;101035.47;5031129;28;20100;-70
2021/12/03 04:05:40;;;;;;;89.30;38.67;;;;;;;0.01;100.00;101034.53;5031625;28;20036;-70
2021/12/03 04:08:05;;;;;;;74.22;35.10;;;;;;;0.04;100.00;101023.16;5031030;28;20049;-69
2021/12/03 04:10:31;;;;;;;76.18;35.17;;;;;;;0.04;100.00;101018.78;5030971;28;20102;-69
2021/12/03 04:12:57;;;;;;;69.80;33.40;;;;;;;0.08;100.00;101016.94;5030974;28;20034;-69
2021/12/03 04:15:22;;;;;;;67.25;34.28;;;;;;;0.08;100.00;101017.78;5031627;28;20075;-69
2021/12/03 04:17:48;;;;;;;64.55;32.05;;;;;;;0.09;100.00;101010.81;5031015;28;20032;-69
2021/12/03 04:20:17;;;;;;;63.47;32.92;;;;;;;0.11;99.96;101011.63;5044369;28;20109;-69
2021/12/03 04:22:42;;;;;;;58.35;30.92;;;;;;;0.11;100.00;101012.47;5064105;28;20024;-69
2021/12/03 04:25:13;;;;;;;63.22;33.65;;;;;;;0.12;100.00;101015.94;5054504;28;20035;-69
2021/12/03 04:27:38;;;;;;;59.17;32.00;;;;;;;0.13;100.00;101013.28;5069800;28;20492;-69
2021/12/03 04:30:09;;;;;;;68.32;33.58;;;;;;;0.16;100.00;101022.78;5041624;28;20069;-69
2021/12/03 04:32:34;;;;;;;67.95;32.70;;;;;;;0.16;100.00;101009.72;5063201;28;20114;-69
2021/12/03 04:34:59;;;;;;;65.50;33.15;;;;;;;0.20;100.00;101015.69;5058037;28;20060;-69
2021/12/03 04:37:25;;;;;;;66.20;34.22;;;;;;;0.21;100.00;101005.19;5070462;28;20029;-69
2021/12/03 04:39:51;;;;;;;68.68;34.20;;;;;;;0.20;100.00;100990.44;5068586;28;20029;-69
2021/12/03 04:42:17;;;;;;;68.97;34.05;;;;;;;0.21;100.00;101015.66;5058677;28;20044;-69
2021/12/03 04:44:42;;;;;;;66.20;33.80;;;;;;;0.22;100.00;101034.78;5055481;28;20028;-69
2021/12/03 04:47:08;;;;;;;64.25;34.10;;;;;;;0.23;100.00;101039.13;5055067;28;20379;-69
2021/12/03 04:49:33;;;;;;;63.67;33.78;;;;;;;0.24;100.00;101036.47;5070478;28;20036;-68
2021/12/03 04:51:58;;;;;;;65.13;33.47;;;;;;;0.25;99.78;101016.41;5050869;28;20013;-69
2021/12/03 04:54:25;;;;;;;61.65;33.80;;;;;;;0.24;100.00;101007.72;5056742;28;20055;-69
2021/12/03 04:56:51;;;;;;;62.67;33.28;;;;;;;0.27;99.89;101030.31;5058617;28;20060;-69
2021/12/03 04:59:16;;;;;;;55.08;30.25;;;;;;;0.27;100.00;101010.25;5067514;28;20053;-69
2021/12/03 05:01:41;;;;;;;47.92;28.95;;;;;;;0.28;99.71;101008.47;5054352;28;20044;-69
2021/12/03 05:04:07;;;;;;;53.22;29.55;;;;;;;0.28;100.00;101005.88;5066210;28;20074;-69
2021/12/03 05:06:53;;;;;;;51.92;28.95;;;;;;;0.29;99.83;100997.13;5051304;28;20090;-69
2021/12/03 05:09:17;;;;;;;41.13;26.33;;;;;;;0.29;99.70;100992.75;5059998;28;20507;-68
2021/12/03 05:11:43;;;;;;;40.60;25.27;;;;;;;0.30;99.84;100994.47;5054510;28;20112;-69
2021/12/03 05:14:08;;;;;;;41.67;24.67;;;;;;;0.29;99.44;100997.97;5058974;28;20064;-68
2021/12/03 05:16:34;;;;;;;40.03;22.77;;;;;;;0.30;99.70;100988.38;5055940;28;20044;-69
2021/12/03 05:18:59;;;;;;;35.97;21.45;;;;;;;0.31;99.55;100984.88;5065968;28;20095;-69
2021/12/03 05:21:25;;;;;;;38.67;21.40;;;;;;;0.31;99.67;100984.88;5050714;28;20074;-68
2021/12/03 05:23:50;;;;;;;36.25;20.77;;;;;;;0.31;99.20;100977.88;5066280;28;20040;-68
2021/12/03 05:26:15;;;;;;;31.77;19.58;;;;;;;0.30;99.33;100985.75;5065149;28;20397;-68
2021/12/03 05:28:41;;;;;;;30.17;17.92;;;;;;;0.31;99.17;100985.72;5066104;28;20025;-68
2021/12/03 05:31:07;;;;;;;25.33;17.75;;;;;;;0.31;99.25;100980.50;5049922;28;20036;-68
2021/12/03 05:33:32;;;;;;;32.00;17.17;;;;;;;0.29;98.96;100990.16;5073836;28;20025;-68
2021/12/03 05:35:58;;;;;;;35.28;16.73;;;;;;;0.31;99.47;100996.16;5064946;28;20032;-69
2021/12/03 05:38:23;;;;;;;31.35;17.52;;;;;;;0.31;99.36;101000.56;5063978;28;20059;-68
2021/12/03 05:40:48;;;;;;;28.95;15.43;;;;;;;0.32;98.90;100994.44;5066243;28;20397;-69
2021/12/03 05:43:13;;;;;;;27.90;15.18;;;;;;;0.31;99.23;100996.16;5047281;28;20016;-69
2021/12/03 05:45:39;;;;;;;27.90;15.13;;;;;;;0.28;98.70;100991.03;5073703;28;20547;-69
2021/12/03 05:48:04;;;;;;;27.30;14.73;;;;;;;0.30;98.98;101004.94;5070483;28;20032;-69
2021/12/03 05:50:30;;;;;;;26.88;14.90;;;;;;;0.30;98.68;101004.06;5042762;28;20032;-69
2021/12/03 05:52:57;;;;;;;24.23;13.00;;;;;;;0.31;98.82;101009.22;5068406;28;20036;-69
2021/12/03 05:55:24;;;;;;;27.85;13.25;;;;;;;0.30;98.49;101007.53;5073571;28;20025;-69
2021/12/03 05:57:49;;;;;;;30.38;13.43;;;;;;;0.30;98.54;100998.81;5070470;28;20525;-69
2021/12/03 06:00:23;;;;;;;29.40;13.25;;;;;;;0.28;98.86;101000.63;5067379;28;20033;-69
2021/12/03 06:02:48;;;;;;;21.77;12.35;;;;;;;0.31;98.87;101003.16;5051439;28;20128;-69
2021/12/03 06:05:14;;;;;;;28.17;13.00;;;;;;;0.32;98.70;100997.03;5055675;28;20067;-69
2021/12/03 06:07:39;;;;;;;29.23;12.45;;;;;;;0.32;98.12;100997.03;5073156;28;20101;-70
2021/12/03 06:10:05;;;;;;;28.27;11.88;;;;;;;0.33;98.20;101003.97;5052665;28;20041;-69
2021/12/03 06:12:30;;;;;;;26.95;11.90;;;;;;;0.33;98.02;100998.72;5063512;28;20037;-69
2021/12/03 06:14:56;;;;;;;30.05;11.85;;;;;;;0.34;98.24;100987.41;5053184;28;20025;-70
2021/12/03 06:17:21;;;;;;;21.98;12.05;;;;;;;0.34;98.00;100984.78;5057414;28;20032;-70
2021/12/03 06:19:46;;;;;;;22.90;10.00;;;;;;;0.35;97.77;100986.47;5063142;28;20166;-69
2021/12/03 06:22:11;;;;;;;26.85;10.90;;;;;;;0.36;97.79;100980.34;5068116;28;20036;-70
2021/12/03 06:24:38;;;;;;;24.15;10.48;;;;;;;0.35;97.62;100986.47;5048578;28;20081;-69
2021/12/03 06:27:04;;;;;;;22.33;10.40;;;;;;;0.36;97.32;100980.34;5072887;28;20024;-69
2021/12/03 06:29:30;;;;;;;21.17;9.73;;;;;;;0.36;96.98;100980.34;5058686;28;20028;-69
2021/12/03 06:31:55;;;;;;;24.73;10.63;;;;;;;0.35;96.94;100978.63;5061019;28;20429;-68
2021/12/03 06:34:20;;;;;;;23.00;10.30;;;;;;;0.35;97.02;100976.03;5054477;28;20025;-69
2021/12/03 06:36:46;;;;;;;23.48;9.98;;;;;;;0.35;96.66;100983.84;5068164;28;20360;-68
2021/12/03 06:39:13;;;;;;;21.63;9.90;;;;;;;0.34;95.92;100976.94;5051020;28;20032;-68
2021/12/03 06:41:38;;;;;;;21.05;10.00;;;;;;;0.34;96.30;100976.94;5032843;28;20033;-68
2021/12/03 06:44:05;;;;;;;26.33;9.82;;;;;;;0.33;95.84;100976.09;5032390;28;20113;-68
2021/12/03 06:46:31;;;;;;;19.15;9.55;;;;;;;0.32;95.65;100973.53;5032939;28;20024;-68
2021/12/03 06:48:57;;;;;;;21.45;9.45;;;;;;;0.31;95.78;100977.03;5032643;28;20033;-68
2021/12/03 06:51:22;;;;;;;24.30;10.00;;;;;;;0.30;95.21;100973.56;5032579;28;20103;-68
2021/12/03 06:54:02;;;;;;;24.95;9.73;;;;;;;0.31;95.34;100982.25;5032606;28;20519;-68
2021/12/03 06:56:44;;;;;;;20.80;8.75;;;;;;;0.31;95.10;100979.66;5032701;28;20464;-67
2021/12/03 06:59:11;;;;;;;23.30;9.48;;;;;;;0.28;94.70;100984.97;5032456;28;20127;-67
2021/12/03 07:01:36;;;;;;;26.15;9.45;;;;;;;0.29;94.67;100987.53;5032420;28;20079;-68
2021/12/03 07:04:01;;;;;;;21.30;9.20;;;;;;;0.27;95.15;100993.72;5032062;28;20519;-67
2021/12/03 07:06:27;;;;;;;22.35;8.73;;;;;;;0.29;94.97;100991.91;5032322;28;20049;-69
2021/12/03 07:08:53;;;;;;;28.70;9.00;;;;;;;0.29;94.46;100997.13;5049849;28;20430;-68
2021/12/03 07:11:18;;;;;;;26.02;9.55;;;;;;;0.28;94.10;100980.59;5071566;28;20051;-69
2021/12/03 07:13:44;;;;;;;21.42;8.90;;;;;;;0.29;94.28;100981.47;5064850;28;20032;-68
2021/12/03 07:16:09;;;;;;;23.17;9.05;;;;;;;0.29;94.62;100986.69;5067007;28;20025;-68
2021/12/03 07:18:35;;;;;;;23.38;8.77;;;;;;;0.28;94.74;100980.59;5061476;28;20585;-69
2021/12/03 07:21:00;;;;;;;23.30;8.80;;;;;;;0.29;94.01;100974.47;5032452;28;20049;-69
2021/12/03 07:23:25;;;;;;;21.92;7.80;;;;;;;0.30;93.96;100965.75;5050594;28;20090;-69
2021/12/03 07:25:50;;;;;;;21.48;9.13;;;;;;;0.28;94.06;100953.63;5061027;28;20041;-69
2021/12/03 07:28:18;;;;;;;17.48;8.07;;;;;;;0.29;93.75;100961.41;5049147;28;20368;-69
2021/12/03 07:30:43;;;;;;;20.10;7.90;;;;;;;0.29;93.96;100948.34;5037776;28;20046;-69
2021/12/03 07:33:12;;;;;;;16.40;7.35;;;;;;;0.30;93.67;100960.50;5036305;28;20036;-69
2021/12/03 07:35:37;;;;;;;21.70;7.88;;;;;;;0.29;93.51;100953.56;5039731;28;20041;-69
2021/12/03 07:38:03;;;;;;;20.50;7.78;;;;;;;0.29;93.20;100958.78;5042455;28;20461;-69
2021/12/03 07:40:28;;;;;;;28.95;8.82;;;;;;;0.30;93.38;100965.75;5042092;28;20041;-69
2021/12/03 07:42:53;;;;;;;27.58;7.68;;;;;;;0.30;93.91;100967.47;5038919;28;20082;-69
2021/12/03 07:45:19;;;;;;;21.13;7.40;;;;;;;0.30;93.61;100972.69;5033399;28;20041;-69
2021/12/03 07:47:44;;;;;;;20.70;8.27;;;;;;;0.32;93.68;100970.91;5040412;28;20224;-69
2021/12/03 07:50:10;;;;;;;19.55;7.07;;;;;;;0.31;93.61;100954.38;5033749;28;20095;-69
2021/12/03 07:52:36;;;;;;;21.85;7.22;;;;;;;0.34;93.71;100951.66;5040104;28;20034;-69
2021/12/03 07:55:03;;;;;;;23.60;7.43;;;;;;;0.36;93.42;100962.06;5044879;28;20052;-68
2021/12/03 07:57:29;;;;;;;25.60;7.28;;;;;;;0.37;93.38;100958.56;5059188;28;20029;-69
2021/12/03 07:59:54;;;;;;;18.05;6.88;;;;;;;0.39;93.51;100954.13;5066196;28;20083;-70
2021/12/03 08:02:19;;;;;;;25.35;7.40;;;;;;;0.41;93.42;100959.31;5066048;28;20024;-69
2021/12/03 08:04:44;;;;;;;22.60;7.05;;;;;;;0.42;93.29;100948.81;5061277;28;20052;-69
2021/12/03 08:07:10;;;;;;;18.67;6.68;;;;;;;0.43;93.70;100957.50;5065644;28;20414;-72
2021/12/03 08:09:37;;;;;;;19.15;7.47;;;;;;;0.43;93.61;100950.50;5064030;28;20044;-72
2021/12/03 08:12:02;;;;;;;19.60;6.65;;;;;;;0.45;93.86;100950.44;5062435;28;20034;-71
2021/12/03 08:14:28;;;;;;;25.02;7.70;;;;;;;0.46;93.68;100952.16;5060571;28;20547;-70
2021/12/03 08:16:53;;;;;;;22.92;7.97;;;;;;;0.47;93.51;100954.75;5064242;28;20025;-71
2021/12/03 08:19:19;;;;;;;28.13;7.25;;;;;;;0.48;93.92;100937.28;5029550;28;20407;-70
2021/12/03 08:21:44;;;;;;;21.42;7.53;;;;;;;0.51;93.47;100945.03;5038119;28;20071;-70
2021/12/03 08:24:09;;;;;;;20.73;6.25;;;;;;;0.50;93.42;100941.56;5055268;28;20033;-70
2021/12/03 08:26:34;;;;;;;21.70;6.72;;;;;;;0.53;93.37;100945.81;5052594;28;20035;-71
2021/12/03 08:29:00;;;;;;;25.55;6.93;;;;;;;0.54;93.05;100953.63;5061005;28;20032;-71
2021/12/03 08:31:25;;;;;;;25.85;6.82;;;;;;;0.56;93.14;100953.56;5055762;28;20517;-69
2021/12/03 08:33:52;;;;;;;26.38;5.78;;;;;;;0.58;92.99;100950.91;5052414;28;20079;-70
2021/12/03 08:36:17;;;;;;;20.25;6.32;;;;;;;0.58;93.12;100948.28;5053034;28;20025;-70
2021/12/03 08:38:44;;;;;;;18.30;7.13;;;;;;;0.61;93.81;100956.03;5072163;28;20028;-70
2021/12/03 08:41:11;;;;;;;24.13;6.05;;;;;;;0.61;93.00;100941.19;5050893;28;20032;-70
2021/12/03 08:43:37;;;;;;;18.45;5.72;;;;;;;0.64;93.12;100954.16;5045314;28;20515;-71
2021/12/03 08:46:09;;;;;;;16.73;5.88;;;;;;;0.66;93.40;100954.13;5051021;28;20021;-70
2021/12/03 08:48:38;;;;;;;17.55;5.68;;;;;;;0.68;93.08;100954.91;5045439;28;20455;-70
2021/12/03 08:56:29;;;;;;;19.00;6.15;;;;;;;0.73;92.98;100939.94;5030090;28;20399;-71
2021/12/03 08:58:55;;;;;;;16.92;6.20;;;;;;;0.77;93.02;100935.44;5050767;28;20029;-70
2021/12/03 09:01:21;;;;;;;16.50;5.72;;;;;;;0.79;93.18;100936.28;5071507;28;20112;-71
2021/12/03 09:03:46;;;;;;;23.15;6.53;;;;;;;0.82;93.00;100934.41;5064799;28;20478;-71
2021/12/03 09:06:11;;;;;;;22.90;6.70;;;;;;;0.84;93.16;100936.97;5057442;28;20079;-71
2021/12/03 09:08:37;;;;;;;23.33;6.38;;;;;;;0.87;93.02;100936.84;5071101;28;20497;-71
2021/12/03 09:11:02;;;;;;;22.27;6.97;;;;;;;0.89;93.14;100942.88;5047911;28;20146;-71
2021/12/03 09:13:27;;;;;;;17.95;6.32;;;;;;;0.92;92.98;100937.56;5038458;28;20474;-71
2021/12/03 09:18:31;;;;;;;20.03;6.33;;;;;;;0.99;92.62;100935.56;5045540;28;20040;-71
2021/12/03 09:23:36;;;;;;;21.60;6.85;;;;;;;1.03;93.08;100922.34;5055903;28;20124;-71
2021/12/03 09:26:08;;;;;;;25.65;6.43;;;;;;;1.08;92.76;100924.75;5047658;28;20061;-71
2021/12/03 09:28:35;;;;;;;24.15;7.13;;;;;;;1.12;92.96;100921.16;5055633;28;20115;-70
2021/12/03 09:31:01;;;;;;;19.55;6.47;;;;;;;1.16;92.99;100914.03;5065560;28;20028;-71
2021/12/03 09:33:29;;;;;;;19.85;6.78;;;;;;;1.18;93.01;100912.22;5063084;28;20032;-71
2021/12/03 09:35:58;;;;;;;26.23;7.60;;;;;;;1.23;92.69;100912.91;5063917;28;20044;-71
2021/12/03 09:38:25;;;;;;;19.50;6.43;;;;;;;1.28;93.25;100924.03;5061349;28;20407;-71
2021/12/03 09:40:51;;;;;;;28.98;7.30;;;;;;;1.31;92.80;100910.84;5052190;28;20505;-71
2021/12/03 09:43:16;;;;;;;21.40;5.78;;;;;;;1.35;92.74;100919.44;5064430;28;20025;-71
2021/12/03 09:45:52;;;;;;;18.88;6.95;;;;;;;1.36;93.30;100914.16;5054998;28;20286;-71
2021/12/03 09:48:30;;;;;;;17.70;6.40;;;;;;;1.39;92.90;100910.56;5071463;28;20036;-71
2021/12/03 09:50:56;;;;;;;22.67;6.65;;;;;;;1.42;92.84;100900.00;5067855;28;20029;-71
2021/12/03 09:53:36;;;;;;;21.27;5.95;;;;;;;1.44;92.85;100898.19;5054904;28;20529;-71
2021/12/03 09:56:02;;;;;;;21.10;6.20;;;;;;;1.45;92.69;100903.34;5055932;28;20398;-71
2021/12/03 09:59:08;;;;;;;23.20;5.97;;;;;;;1.48;92.55;100889.28;5062095;28;20032;-72
2021/12/03 10:01:41;;;;;;;19.20;6.07;;;;;;;1.51;92.66;100881.31;5058399;28;20072;-71
2021/12/03 10:10:13;;;;;;;15.25;6.40;;;;;;;1.59;92.73;100871.41;5058163;28;20040;-71
2021/12/03 10:13:14;;;;;;;19.10;5.82;;;;;;;1.61;92.34;100871.34;5049833;28;20038;-72
2021/12/03 10:15:22;;;;;;;19.02;5.78;;;;;;;1.63;92.50;100870.38;5042086;28;20067;-72
2021/12/03 10:34:35;;;;;;;21.35;6.05;;;;;;;1.86;91.70;100811.00;5049202;28;20071;-72
2021/12/03 10:39:49;;;;;;;20.38;6.32;;;;;;;1.96;91.93;100808.84;5052563;28;20032;-71
2021/12/03 10:42:46;;;;;;;17.33;6.20;;;;;;;1.99;91.90;100800.88;5052181;28;20463;-71
2021/12/03 10:48:03;;;;;;;16.63;7.07;;;;;;;2.03;91.36;100798.06;5052412;28;20055;-71
2021/12/03 10:50:43;;;;;;;20.25;6.43;;;;;;;2.09;91.60;100788.25;5045150;28;20025;-70
2021/12/03 10:53:25;;;;;;;14.32;6.68;;;;;;;2.11;91.25;100786.41;5032281;28;20030;-71
2021/12/03 11:01:16;;;;;;;16.88;7.25;;;;;;;2.20;90.96;100744.94;5032085;28;20034;-71
2021/12/03 11:06:53;;;;;;;19.55;7.38;;;;;;;2.30;90.60;100748.00;5028228;28;20056;-72
2021/12/03 11:26:52;;;;;;;20.60;7.32;;;;;;;2.57;88.32;100708.38;5067486;28;20072;-69
2021/12/03 11:34:40;;;;;;;13.65;6.40;;;;;;;2.66;88.77;100689.59;5051125;28;20041;-70
2021/12/03 11:54:40;;;;;;;15.43;6.55;;;;;;;2.97;86.88;100675.91;5048207;28;20044;-70
2021/12/03 12:05:30;;;;;;;12.25;5.78;;;;;;;3.13;86.42;100651.53;5039321;28;20065;-70
2021/12/03 12:16:14;;;;;;;11.55;5.03;;;;;;;3.23;85.29;100630.94;5031929;28;20065;-70
2021/12/03 12:35:53;;;;;;;9.80;4.47;;;;;;;3.36;83.52;100583.94;5043568;28;20495;-70
2021/12/03 12:55:37;;;;;;;9.23;4.73;;;;;;;3.42;82.05;100573.97;5044280;28;20571;-71
2021/12/03 13:36:46;;;;;;;6.88;3.38;;;;;;;3.45;81.59;100521.31;5051047;28;20041;-71
2021/12/03 13:45:29;;;;;;;11.50;3.58;;;;;;;3.40;82.45;100510.19;5069669;28;20079;-71
2021/12/03 14:01:29;;;;;;;6.93;3.42;;;;;;;3.30;83.45;100501.13;5063680;28;20551;-71
2021/12/03 14:09:28;;;;;;;5.82;3.33;;;;;;;3.26;83.94;100479.41;5054292;28;20055;-72
2021/12/03 14:44:19;;;;;;;7.15;3.72;;;;;;;3.10;87.41;100462.78;5071005;28;20074;-71
2021/12/03 14:47:08;;;;;;;7.00;3.53;;;;;;;3.10;87.33;100468.88;5060281;28;20021;-71
2021/12/03 14:50:05;;;;;;;5.60;3.40;;;;;;;3.12;87.54;100474.88;5038652;28;20044;-72
2021/12/03 14:52:37;;;;;;;6.38;3.25;;;;;;;3.11;88.01;100475.81;5053726;28;20029;-72
2021/12/03 14:55:05;;;;;;;6.65;3.50;;;;;;;3.10;87.66;100462.78;5059600;28;20419;-71
2021/12/03 15:00:10;;;;;;;8.65;3.83;;;;;;;3.13;87.80;100473.09;5071321;28;20072;-72
2021/12/03 15:02:58;;;;;;;;;;;;;;;3.18;87.86;100470.22;5054023;28;20562;-71
2021/12/03 15:05:52;;;;;;;4.80;3.20;;;;;;;3.11;88.14;100473.19;5032492;28;19920;-71
2021/12/03 15:08:29;;;;;;;5.82;3.50;;;;;;;3.13;88.20;100476.59;5032485;28;20080;-71
2021/12/03 15:19:06;;;;;;;6.78;3.15;;;;;;;3.10;88.87;100474.13;5041844;28;20483;-71
2021/12/03 15:32:12;;;;;;;8.57;3.40;;;;;;;3.14;89.23;100461.69;5070676;28;20151;-71
2021/12/03 16:04:43;;;;;;;4.18;3.75;;;;;;;2.97;93.53;100426.66;5041188;28;20068;-71